Logo AVAMET
Benvolgut visitant, si us plau, ingressa Recuperar contrasenya
AVAMET paisatges

Xàbia Tossals/Carrasquetes

Dades diàries. Acumulats / Últims 30 dies disponibles

Data Temperatura (°C) Humitat rel. (%) Pressió rel. (hPa) Vent (km/h) Precipitació
Mínima Mitjana Màxima Amplitud
tèrmica
Mínima Mitjana Màxima Mínima Mitjana Màxima Predom. Mitjana Ràfega
màxima
Total
(mm)
Índex-n
Mínima Mitjana Màxima Mínima Mitjana Màxima n
0 a 1
P0 max
mm 5'
Dades mensuals acumulades fins l'últim dia disponible
03/2020 7,3 11,4 16,4 14,5 12,6 18,3 25,3 18,0 26 73 97 1.001 1.017 1.027   4,1 61,2 58,0
Dades anuals acumulades fins l'últim dia disponible
2020 3,0 9,4 16,4 13,4 12,6 18,1 26,8 23,8 16 76 99 1.001 1.022 1.034   2,7 66,0 155,4
Últims 30 dies disponibles
28-03-2020 8,4     11,8     15,6 7,2 51 72 86 1.016 1.017 1.019 NNW 3,5 27,4 0,0
27-03-2020 8,6     10,7     12,7 4,1 61 81 93 1.011 1.013 1.016 NE 1,9 24,1 3,2 0,20 0,60
26-03-2020 7,3     11,3     15,8 8,5 46 75 94 1.007 1.009 1.014 NE 2,3 25,7 0,0
25-03-2020 8,0     10,3     12,6 4,6 68 85 95 1.014 1.016 1.017 ENE 1,3 27,4 9,8 0,70 2,80
24-03-2020 12,5     13,7     14,6 2,1 68 86 93 1.013 1.015 1.016 ENE 7,7 35,4 3,2
23-03-2020 11,4     13,9     16,5 5,1 84 92 97 1.013 1.015 1.016 ESE 3,7 24,1 18,0 0,30 3,90
22-03-2020 10,7     13,1     15,4 4,7 80 91 97 1.010 1.012 1.014 W 2,4 27,4 0,4
21-03-2020 12,3     13,4     13,9 1,6 89 92 97 1.011 1.013 1.016 NNW 1,9 20,9 6,8 0,19 0,60
20-03-2020 12,8     13,8     15,6 2,8 81 87 93 1.016 1.017 1.019 ENE 2,4 20,9 3,2 0,15 0,60
19-03-2020 13,4     14,6     16,9 3,5 73 88 93 1.020 1.022 1.024 ENE 3,4 20,9 0,0
18-03-2020 13,5     14,2     15,6 2,1 85 90 95 1.024 1.025 1.027 NE 6,3 29,0 0,0
17-03-2020 9,9     12,4     14,7 4,8 89 95 97 1.019 1.023 1.027 NNE 4,0 33,8 9,4 0,21 0,70
16-03-2020 10,1     13,1     18,2 8,1 75 88 95 1.010 1.013 1.019 SW 1,9 32,2 3,8 0,30 0,40
15-03-2020 10,0     14,3     18,7 8,7 68 85 97 1.014 1.017 1.020 ESE 2,1 20,9 0,2
14-03-2020 10,9     14,5     18,4 7,5 74 87 96 1.018 1.019 1.021 ESE 2,3 20,9 0,0
13-03-2020 12,0     14,4     17,3 5,3 78 88 96 1.016 1.018 1.020 NNW 6,3 46,7 0,0
12-03-2020 10,6     17,0     23,7 13,1 34 67 95 1.016 1.019 1.022 SSE 1,3 17,7 0,0
11-03-2020 10,2     16,9     25,3 15,1 40 69 93 1.021 1.022 1.023 ESE 1,3 19,3 0,0
10-03-2020 9,9     12,5     17,9 8,0 55 71 82 1.023 1.024 1.026 NW 0,5 14,5 0,0
09-03-2020 12,0     16,8     22,5 10,5 34 53 86 1.019 1.021 1.023 WNW 4,7 32,2 0,0
08-03-2020 8,4     12,2     20,0 11,6 38 60 82 1.020 1.022 1.024 NW 0,6 12,9 0,0
07-03-2020 11,4     14,1     17,8 6,4 34 45 65 1.019 1.021 1.024 WNW 8,5 61,2 0,0
06-03-2020 12,3     14,9     17,6 5,3 31 48 73 1.012 1.014 1.019 WNW 8,4 46,7 0,0
05-03-2020 15,3     19,6     25,1 9,8 39 49 61 1.007 1.011 1.015 WNW 7,2 43,5 0,0
04-03-2020 15,7     19,8     23,8 8,1 43 56 73 1.015 1.016 1.019 WNW 7,1 45,1 0,0
03-03-2020 9,7     16,3     22,4 12,7 35 47 61 1.010 1.015 1.017 WNW 8,9 48,3 0,0
02-03-2020 14,9     18,7     23,7 8,8 26 46 69 1.001 1.007 1.016 W 8,7 54,7 0,0
01-03-2020 16,4     18,1     19,6 3,2 42 52 68 1.011 1.013 1.015 WNW 5,1 27,4 0,0
29-02-2020 8,9     17,1     23,8 14,9 34 54 82 1.010 1.013 1.017 NW 1,4 27,4 0,0
28-02-2020 15,4     19,0     22,0 6,6 31 43 66 1.019 1.020 1.022 NW 6,0 38,6 0,0
Últims 13 mesos disponibles
02/2020 6,1 9,7 15,4 14,3 14,3 19,7 26,8 20,7 42 75 91 1.013 1.025 1.032 NW 1,7 40,2 3,8
01/2020 3,0 7,4 13,8 11,5 13,1 16,3 22,3 19,3 60 80 96 1.014 1.024 1.032 NW 2,3 66,0 93,6
12/2019 6,2 10,1 15,9 13,8 13,7 18,0 23,0 16,8 48 76 93 1.004 1.018 1.032 NW 2,6 53,1 140,0
11/2019 5,4 11,5 19,6 15,5 14,7 19,8 27,6 22,2 44 61 87 998 1.010 1.018 NW 3,4 51,5 12,0
10/2019 8,8 15,6 19,9 19,9 16,7 24,6 30,0 21,2 48 76 92 1.007 1.016 1.021 NW 1,7 45,1 75,4
09/2019 13,9 19,6 23,7 23,4 23,3 27,2 32,1 18,2 64 81 92 1.009 1.016 1.022 ESE 2,8 53,1 188,0
08/2019 19,0 21,9 25,3 26,1 26,9 30,6 36,3 17,3 61 76 85 1.009 1.015 1.019 SW 2,6 38,6 29,8
07/2019 19,9 22,0 26,1 26,6 28,7 31,2 36,2 16,3 51 71 81 1.005 1.013 1.020 ESE 2,7 45,1 2,2
06/2019 13,0 17,6 22,8 22,4 21,6 27,1 35,9 22,9 50 70 83 1.008 1.014 1.021 NNW 3,5 41,8 0,8
05/2019 9,8 14,2 19,7 18,7 19,8 23,6 30,1 20,3 54 72 84 1.004 1.015 1.024 WSW 2,2 41,8 12,4
04/2019 7,8 11,2 14,3 15,3 14,3 20,0 28,6 20,8 47 73 95 999 1.012 1.025 W 3,3 43,5 363,0
03/2019 6,4 9,3 13,2 14,2 13,9 19,3 28,1 21,7 45 67 91 1.010 1.022 1.029 NW 2,4 38,6 39,2
02/2019 4,3 7,3 11,5 12,0 13,0 17,4 22,8 18,5 38 70 86 995 1.024 1.033 NW 2,2 53,1 1,0
Tots els anys disponibles
2019 2,3 14,0 26,1 18,3 11,3 23,0 36,3 34,0 38 72 95 995 1.016 1.033 NW 2,6 53,1 870,6
2018 2,1 14,2 25,8 18,4 8,1 23,2 37,5 35,4 37 76 94 999 1.017 1.030 NW 2,2 62,8 778,8
2017 0,4 14,1 26,9 18,7 8,9 23,3 35,9 35,5 38 71 96 999 1.018 1.036 0,0 68,0 720,4
2016 1,9 14,4 24,3 18,7 12,2 23,1 38,2 36,3 35 70 94 995 1.017 1.036 56,0 475,4
2015 3,8 12,1 21,1 16,4 13,1 20,7 30,4 26,6 44 78 91 1.008 1.023 1.036 48,0 232,2
2014
Temperatura (°C)
Humitat relativa (%)
Velocitat del vent i ràfega màxima (km/h)
Direcció del vent (°)
Pressió (hPa)
Precipitació (mm)
Nota sobre les dades: s'avisa a l'usuari de la provisionalitat i no oficialitat d'aquestes dades
Logo AVAMET blanc
Web allotjada a Sollutia
Llicència de Creative CommonsLa web d'AVAMET i els seus continguts estan subjectes a una llicència de
Reconeixement - No Comercial - Compartir igual
Últimes estacions:  Altea - Com. Regants (Soci), Almoines (Inforatge), Beniparrell (Inforatge), Albal (Inforatge), Almussafes - Parc Industrial (Inforatge), La Vilavella (Soci), la Serratella (soci) - - -